createdAt,value
2022-09-12T00:01:20.148Z,100290.27
2022-09-12T00:03:51.323Z,100290.01
2022-09-12T00:06:23.217Z,100293.40
2022-09-12T00:08:54.238Z,100291.83
2022-09-12T00:11:22.616Z,100290.20
2022-09-12T00:13:51.203Z,100292.91
2022-09-12T00:16:21.391Z,100297.85
2022-09-12T00:18:49.910Z,100302.77
2022-09-12T00:21:18.902Z,100301.12
2022-09-12T00:23:47.589Z,100302.95
2022-09-12T00:26:17.506Z,100307.02
2022-09-12T00:28:46.268Z,100301.88
2022-09-12T00:31:16.306Z,100303.30
2022-09-12T00:33:45.106Z,100306.48
2022-09-12T00:36:15.157Z,100311.89
2022-09-12T00:38:44.173Z,100308.20
2022-09-12T00:41:17.208Z,100305.64
2022-09-12T00:43:51.823Z,100306.17
2022-09-12T00:46:26.153Z,100303.56
2022-09-12T00:49:13.781Z,100302.81
2022-09-12T00:51:44.608Z,100297.33
2022-09-12T00:54:14.218Z,100291.98
2022-09-12T00:56:44.431Z,100290.83
2022-09-12T00:59:15.805Z,100290.69
2022-09-12T01:01:45.380Z,100290.31
2022-09-12T01:04:14.198Z,100284.83
2022-09-12T01:06:44.117Z,100283.52
2022-09-12T01:09:15.363Z,100282.17
2022-09-12T01:11:47.326Z,100284.80
2022-09-12T01:14:17.145Z,100282.83
2022-09-12T01:16:46.085Z,100279.61
2022-09-12T01:19:43.390Z,100280.17
2022-09-12T01:22:29.932Z,100277.38
2022-09-12T01:25:04.729Z,100278.64
2022-09-12T01:27:33.121Z,100276.56
2022-09-12T01:30:13.979Z,100274.20
2022-09-12T01:32:57.657Z,100276.23
2022-09-12T01:35:46.376Z,100279.59
2022-09-12T01:38:29.910Z,100285.54
2022-09-12T01:40:58.290Z,100289.48
2022-09-12T01:43:42.480Z,100287.48
2022-09-12T01:46:19.729Z,100293.58
2022-09-12T01:48:50.976Z,100295.98
2022-09-12T01:51:23.248Z,100292.41
2022-09-12T01:53:55.874Z,100290.39
2022-09-12T01:56:29.328Z,100290.20
2022-09-12T01:59:00.584Z,100285.82
2022-09-12T02:01:31.500Z,100285.18
2022-09-12T02:04:05.949Z,100284.71
2022-09-12T02:06:37.900Z,100282.80
2022-09-12T02:09:11.909Z,100280.42
2022-09-12T02:11:43.260Z,100279.42
2022-09-12T02:14:19.114Z,100273.78
2022-09-12T02:17:07.872Z,100267.67
2022-09-12T02:19:57.142Z,100265.11
2022-09-12T02:22:27.439Z,100259.02
2022-09-12T02:25:00.457Z,100253.20
2022-09-12T02:27:49.030Z,100253.42
2022-09-12T02:30:19.577Z,100253.24
2022-09-12T02:32:47.919Z,100255.30
2022-09-12T02:35:35.932Z,100259.36
2022-09-12T02:38:13.659Z,100257.46
2022-09-12T02:40:42.346Z,100259.72
2022-09-12T02:43:10.827Z,100264.03
2022-09-12T02:45:39.135Z,100269.73
2022-09-12T02:48:14.243Z,100275.69
2022-09-12T02:50:43.237Z,100273.48
2022-09-12T02:53:11.544Z,100283.67
2022-09-12T02:55:41.021Z,100290.60
2022-09-12T02:58:12.074Z,100301.42
2022-09-12T03:00:55.952Z,100302.65
2022-09-12T03:03:44.564Z,100308.23
2022-09-12T03:06:22.096Z,100311.22
2022-09-12T03:09:09.483Z,100309.13
2022-09-12T03:11:43.936Z,100310.30
2022-09-12T03:14:22.408Z,100307.23
2022-09-12T03:16:56.945Z,100305.58
2022-09-12T03:19:44.826Z,100308.85
2022-09-12T03:22:20.532Z,100307.38
2022-09-12T03:24:55.057Z,100309.42
2022-09-12T03:27:32.552Z,100312.43
2022-09-12T03:30:01.339Z,100309.77
2022-09-12T03:32:49.585Z,100308.16
2022-09-12T03:35:22.848Z,100313.59
2022-09-12T03:37:52.563Z,100312.10
2022-09-12T03:40:21.281Z,100306.61
2022-09-12T03:42:49.543Z,100302.54
2022-09-12T03:45:17.960Z,100309.20
2022-09-12T03:47:46.623Z,100313.34
2022-09-12T03:50:14.801Z,100316.36
2022-09-12T03:52:43.179Z,100315.01
2022-09-12T03:55:12.582Z,100316.44
2022-09-12T03:57:40.858Z,100312.77
2022-09-12T04:00:09.536Z,100305.63
2022-09-12T04:02:47.144Z,100304.35
2022-09-12T04:05:15.629Z,100303.87
2022-09-12T04:07:43.903Z,100304.41
2022-09-12T04:10:12.490Z,100303.38
2022-09-12T04:12:41.277Z,100301.29
2022-09-12T04:15:10.408Z,100303.34
2022-09-12T04:17:38.963Z,100308.51
2022-09-12T04:20:07.937Z,100309.10
2022-09-12T04:22:36.230Z,100314.87
2022-09-12T04:25:05.122Z,100315.33
2022-09-12T04:27:33.602Z,100317.52
2022-09-12T04:30:02.701Z,100315.92
2022-09-12T04:32:31.544Z,100317.80
2022-09-12T04:35:00.179Z,100316.54
2022-09-12T04:37:28.455Z,100321.48
2022-09-12T04:39:58.277Z,100321.95
2022-09-12T04:42:26.958Z,100323.65
2022-09-12T04:44:55.230Z,100330.23
2022-09-12T04:47:23.624Z,100337.56
2022-09-12T04:49:52.888Z,100336.44
2022-09-12T04:52:22.009Z,100339.48
2022-09-12T04:54:51.004Z,100344.63
2022-09-12T04:57:19.898Z,100349.17
2022-09-12T04:59:48.071Z,100348.88
2022-09-12T05:02:16.674Z,100349.40
2022-09-12T05:04:47.185Z,100352.39
2022-09-12T05:07:15.770Z,100349.23
2022-09-12T05:09:44.152Z,100345.54
2022-09-12T05:12:12.636Z,100342.89
2022-09-12T05:14:41.116Z,100348.56
2022-09-12T05:17:09.391Z,100341.02
2022-09-12T05:19:37.922Z,100338.52
2022-09-12T05:22:07.199Z,100335.34
2022-09-12T05:24:35.658Z,100332.48
2022-09-12T05:27:05.093Z,100334.65
2022-09-12T05:29:34.575Z,100336.88
2022-09-12T05:32:03.256Z,100340.02
2022-09-12T05:34:31.634Z,100338.23
2022-09-12T05:37:00.018Z,100338.98
2022-09-12T05:39:28.445Z,100339.36
2022-09-12T05:41:57.083Z,100335.58
2022-09-12T05:44:25.564Z,100339.05
2022-09-12T05:46:54.149Z,100337.66
2022-09-12T05:49:22.939Z,100337.17
2022-09-12T05:51:52.036Z,100342.16
2022-09-12T05:54:20.832Z,100340.52
2022-09-12T05:56:49.485Z,100344.10
2022-09-12T05:59:19.363Z,100341.59
2022-09-12T06:01:48.892Z,100345.86
2022-09-12T06:04:18.236Z,100344.31
2022-09-12T06:06:47.238Z,100335.41
2022-09-12T06:09:16.433Z,100333.50
2022-09-12T06:11:46.245Z,100336.95
2022-09-12T06:14:17.988Z,100338.67
2022-09-12T06:16:47.727Z,100339.02
2022-09-12T06:19:20.720Z,100340.21
2022-09-12T06:21:50.210Z,100340.59
2022-09-12T06:24:19.398Z,100339.93
2022-09-12T06:26:48.997Z,100337.23
2022-09-12T06:29:17.501Z,100338.61
2022-09-12T06:31:46.189Z,100341.11
2022-09-12T06:34:15.268Z,100343.33
2022-09-12T06:36:45.558Z,100346.31
2022-09-12T06:39:16.555Z,100346.48
2022-09-12T06:41:45.372Z,100347.91
2022-09-12T06:44:15.791Z,100348.52
2022-09-12T06:46:44.809Z,100347.87
2022-09-12T06:49:13.351Z,100351.52
2022-09-12T06:51:44.808Z,100351.79
2022-09-12T06:54:14.475Z,100347.35
2022-09-12T06:56:43.200Z,100348.36
2022-09-12T06:59:11.493Z,100344.48
2022-09-12T07:01:41.393Z,100348.88
2022-09-12T07:04:10.288Z,100344.91
2022-09-12T07:06:40.206Z,100349.03
2022-09-12T07:09:11.039Z,100350.13
2022-09-12T07:11:40.762Z,100356.79
2022-09-12T07:14:10.465Z,100352.66
2022-09-12T07:16:38.887Z,100359.26
2022-09-12T07:19:08.485Z,100355.75
2022-09-12T07:21:40.868Z,100354.48
2022-09-12T07:24:10.564Z,100357.71
2022-09-12T07:26:40.868Z,100356.95
2022-09-12T07:29:35.377Z,100357.70
2022-09-12T07:32:02.714Z,100357.41
2022-09-12T07:34:31.401Z,100362.44
2022-09-12T07:36:59.986Z,100361.23
2022-09-12T07:39:28.368Z,100358.77
2022-09-12T07:41:57.773Z,100358.44
2022-09-12T07:44:27.177Z,100360.86
2022-09-12T07:46:55.660Z,100356.45
2022-09-12T07:49:24.653Z,100355.34
2022-09-12T07:51:53.662Z,100352.67
2022-09-12T07:54:22.283Z,100351.42
2022-09-12T07:56:50.617Z,100353.55
2022-09-12T07:59:41.402Z,100350.56
2022-09-12T08:02:14.694Z,100352.98
2022-09-12T08:04:45.177Z,100349.62
2022-09-12T08:07:15.060Z,100348.02
2022-09-12T08:09:43.550Z,100349.81
2022-09-12T08:12:11.819Z,100349.69
2022-09-12T08:14:40.201Z,100345.38
2022-09-12T08:17:08.685Z,100346.59
2022-09-12T08:19:36.961Z,100339.81
2022-09-12T08:22:06.061Z,100343.59
2022-09-12T08:24:34.439Z,100339.23
2022-09-12T08:27:02.920Z,100337.86
2022-09-12T08:29:32.112Z,100335.89
2022-09-12T08:32:00.312Z,100333.95
2022-09-12T08:34:28.983Z,100330.02
2022-09-12T08:36:57.898Z,100325.21
2022-09-12T08:39:26.461Z,100321.93
2022-09-12T08:42:03.326Z,100319.16
2022-09-12T08:44:51.895Z,100314.02
2022-09-12T08:47:21.400Z,100316.19
2022-09-12T08:50:05.151Z,100307.73
2022-09-12T08:52:39.819Z,100305.83
2022-09-12T08:55:20.126Z,100303.13
2022-09-12T08:57:48.818Z,100301.88
2022-09-12T09:00:17.580Z,100301.09
2022-09-12T09:02:46.356Z,100295.39
2022-09-12T09:05:30.241Z,100295.83
2022-09-12T09:08:01.591Z,100289.17
2022-09-12T09:10:56.289Z,100281.39
2022-09-12T09:14:06.447Z,100286.20
2022-09-12T09:16:36.877Z,100286.80
2022-09-12T09:19:17.852Z,100286.64
2022-09-12T09:21:51.968Z,100282.55
2022-09-12T09:24:22.939Z,100277.96
2022-09-12T09:27:23.621Z,100273.90
2022-09-12T09:29:56.528Z,100273.27
2022-09-12T09:32:41.297Z,100272.41
2022-09-12T09:35:22.989Z,100268.86
2022-09-12T09:37:59.462Z,100269.23
2022-09-12T09:40:34.478Z,100272.95
2022-09-12T09:43:18.781Z,100273.84
2022-09-12T09:45:48.026Z,100271.98
2022-09-12T09:48:32.002Z,100268.80
2022-09-12T09:51:02.207Z,100267.07
2022-09-12T09:53:52.111Z,100265.64
2022-09-12T09:56:40.496Z,100259.94
2022-09-12T09:59:28.597Z,100256.95
2022-09-12T10:01:58.381Z,100261.58
2022-09-12T10:04:41.527Z,100255.63
2022-09-12T10:07:19.303Z,100252.88
2022-09-12T10:10:07.997Z,100243.10
2022-09-12T10:12:36.579Z,100247.04
2022-09-12T10:15:18.477Z,100239.65
2022-09-12T10:17:48.632Z,100246.10
2022-09-12T10:20:31.417Z,100249.66
2022-09-12T10:23:01.336Z,100246.22
2022-09-12T10:25:29.815Z,100234.00
2022-09-12T10:28:00.226Z,100235.73
2022-09-12T10:30:29.106Z,100237.04
2022-09-12T10:33:00.052Z,100235.83
2022-09-12T10:35:31.504Z,100238.61
2022-09-12T10:38:02.947Z,100237.78
2022-09-12T10:40:40.679Z,100238.56
2022-09-12T10:43:24.628Z,100233.68
2022-09-12T10:45:57.038Z,100234.83
2022-09-12T10:48:25.484Z,100232.73
2022-09-12T10:50:53.759Z,100231.73
2022-09-12T10:53:23.882Z,100230.60
2022-09-12T10:56:07.726Z,100226.63
2022-09-12T10:58:45.219Z,100233.80
2022-09-12T11:01:19.510Z,100231.69
2022-09-12T11:03:54.049Z,100227.98
2022-09-12T11:06:28.285Z,100224.90
2022-09-12T11:09:03.625Z,100229.36
2022-09-12T11:11:36.055Z,100227.42
2022-09-12T11:14:04.686Z,100225.33
2022-09-12T11:16:41.055Z,100222.89
2022-09-12T11:19:11.251Z,100215.61
2022-09-12T11:21:58.191Z,100218.26
2022-09-12T11:24:26.744Z,100219.06
2022-09-12T11:26:57.823Z,100215.61
2022-09-12T11:29:25.995Z,100210.60
2022-09-12T11:31:54.376Z,100209.58
2022-09-12T11:34:42.828Z,100209.30
2022-09-12T11:37:23.291Z,100199.52
2022-09-12T11:39:55.537Z,100209.22
2022-09-12T11:42:29.988Z,100204.16
2022-09-12T11:45:10.041Z,100198.55
2022-09-12T11:47:39.750Z,100197.30
2022-09-12T11:50:16.219Z,100202.02
2022-09-12T11:52:45.011Z,100196.73
2022-09-12T11:55:18.102Z,100196.52
2022-09-12T11:57:46.480Z,100192.19
2022-09-12T12:00:18.138Z,100191.59
2022-09-12T12:02:56.044Z,100186.61
2022-09-12T12:05:43.572Z,100189.99
2022-09-12T12:08:12.567Z,100186.80
2022-09-12T12:10:42.863Z,100183.45
2022-09-12T12:13:28.784Z,100189.89
2022-09-12T12:15:59.741Z,100187.22
2022-09-12T12:18:29.642Z,100189.95
2022-09-12T12:21:18.704Z,100184.75
2022-09-12T12:24:05.626Z,100182.86
2022-09-12T12:26:40.604Z,100182.87
2022-09-12T12:29:09.736Z,100179.13
2022-09-12T12:31:56.773Z,100182.39
2022-09-12T12:34:28.124Z,100191.59
2022-09-12T12:36:56.913Z,100193.50
2022-09-12T12:39:34.610Z,100196.88
2022-09-12T12:42:03.835Z,100207.81
2022-09-12T12:44:44.469Z,100211.23
2022-09-12T12:47:16.033Z,100209.36
2022-09-12T12:49:50.354Z,100215.86
2022-09-12T12:52:19.819Z,100211.54
2022-09-12T12:54:50.901Z,100206.14
2022-09-12T12:57:23.151Z,100207.02
2022-09-12T12:59:57.085Z,100210.21
2022-09-12T13:02:41.942Z,100212.73
2022-09-12T13:05:20.265Z,100211.18
2022-09-12T13:07:55.032Z,100208.27
2022-09-12T13:10:25.069Z,100207.91
2022-09-12T13:12:53.762Z,100212.55
2022-09-12T13:15:36.003Z,100210.77
2022-09-12T13:18:06.743Z,100214.10
2022-09-12T13:20:38.708Z,100215.41
2022-09-12T13:23:21.420Z,100213.87
2022-09-12T13:25:54.101Z,100214.71
2022-09-12T13:28:23.916Z,100205.92
2022-09-12T13:30:59.015Z,100208.16
2022-09-12T13:33:33.885Z,100207.66
2022-09-12T13:36:12.406Z,100208.21
2022-09-12T13:38:51.946Z,100208.36
2022-09-12T13:41:23.195Z,100213.00
2022-09-12T13:43:52.086Z,100216.43
2022-09-12T13:46:31.960Z,100219.29
2022-09-12T13:49:01.686Z,100227.70
2022-09-12T13:51:32.510Z,100230.48
2022-09-12T13:54:03.835Z,100232.23
2022-09-12T13:56:32.419Z,100233.34
2022-09-12T13:59:02.930Z,100230.23
2022-09-12T14:01:39.815Z,100229.14
2022-09-12T14:04:34.426Z,100234.11
2022-09-12T14:07:11.600Z,100233.37
2022-09-12T14:09:41.528Z,100236.20
2022-09-12T14:12:43.804Z,100233.05
2022-09-12T14:15:17.713Z,100229.61
2022-09-12T14:17:52.012Z,100222.39
2022-09-12T14:20:22.771Z,100224.08
2022-09-12T14:22:51.966Z,100227.44
2022-09-12T14:25:22.193Z,100230.73
2022-09-12T14:27:55.468Z,100229.64
2022-09-12T14:30:28.680Z,100232.12
2022-09-12T14:33:12.628Z,100231.55
2022-09-12T14:35:46.023Z,100233.58
2022-09-12T14:38:14.915Z,100235.80
2022-09-12T14:40:51.486Z,100231.45
2022-09-12T14:43:30.214Z,100238.00
2022-09-12T14:46:00.104Z,100244.02
2022-09-12T14:48:30.720Z,100243.23
2022-09-12T14:50:59.561Z,100244.37
2022-09-12T14:53:30.899Z,100245.67
2022-09-12T14:56:05.614Z,100245.60
2022-09-12T14:58:34.111Z,100240.80
2022-09-12T15:01:09.021Z,100243.05
2022-09-12T15:03:58.021Z,100239.67
2022-09-12T15:06:26.799Z,100244.77
2022-09-12T15:08:57.047Z,100246.25
2022-09-12T15:11:25.605Z,100247.12
2022-09-12T15:13:54.395Z,100244.82
2022-09-12T15:16:22.817Z,100245.52
2022-09-12T15:18:51.361Z,100245.84
2022-09-12T15:21:20.565Z,100246.96
2022-09-12T15:23:50.580Z,100253.31
2022-09-12T15:26:20.391Z,100252.85
2022-09-12T15:28:50.512Z,100252.18
2022-09-12T15:31:26.414Z,100255.30
2022-09-12T15:33:55.569Z,100255.48
2022-09-12T15:36:25.177Z,100248.74
2022-09-12T15:38:53.967Z,100249.31
2022-09-12T15:41:24.188Z,100251.15
2022-09-12T15:43:52.777Z,100251.66
2022-09-12T15:46:21.405Z,100249.27
2022-09-12T15:48:50.642Z,100249.95
2022-09-12T15:51:20.688Z,100254.16
2022-09-12T15:53:49.797Z,100253.22
2022-09-12T15:56:19.586Z,100252.01
2022-09-12T15:58:58.343Z,100251.02
2022-09-12T16:01:28.896Z,100248.23
2022-09-12T16:03:57.737Z,100250.12
2022-09-12T16:06:28.166Z,100255.23
2022-09-12T16:08:57.365Z,100258.27
2022-09-12T16:11:26.768Z,100258.42
2022-09-12T16:13:56.275Z,100260.21
2022-09-12T16:16:24.848Z,100260.46
2022-09-12T16:18:53.549Z,100260.96
2022-09-12T16:21:22.032Z,100260.93
2022-09-12T16:23:51.130Z,100264.34
2022-09-12T16:26:19.711Z,100272.82
2022-09-12T16:28:48.280Z,100279.02
2022-09-12T16:31:17.039Z,100280.42
2022-09-12T16:33:45.468Z,100285.25
2022-09-12T16:36:15.184Z,100286.95
2022-09-12T16:38:48.107Z,100289.70
2022-09-12T16:41:17.265Z,100288.05
2022-09-12T16:43:45.950Z,100295.80
2022-09-12T16:46:16.519Z,100297.41
2022-09-12T16:48:51.156Z,100301.29
2022-09-12T16:51:22.040Z,100300.46
2022-09-12T16:53:50.947Z,100308.00
2022-09-12T16:56:19.319Z,100313.35
2022-09-12T16:58:48.317Z,100316.78
2022-09-12T17:01:24.324Z,100320.00
2022-09-12T17:03:53.965Z,100318.20
2022-09-12T17:06:22.670Z,100326.45
2022-09-12T17:08:52.490Z,100330.06
2022-09-12T17:11:22.398Z,100334.27
2022-09-12T17:14:04.301Z,100332.44
2022-09-12T17:16:38.598Z,100335.65
2022-09-12T17:19:07.304Z,100340.48
2022-09-12T17:21:35.788Z,100339.60
2022-09-12T17:24:04.679Z,100342.95
2022-09-12T17:26:33.369Z,100342.78
2022-09-12T17:29:01.950Z,100351.42
2022-09-12T17:31:30.781Z,100357.69
2022-09-12T17:33:59.890Z,100362.37
2022-09-12T17:36:29.239Z,100368.96
2022-09-12T17:38:58.136Z,100371.39
2022-09-12T17:41:28.252Z,100371.30
2022-09-12T17:43:57.459Z,100374.89
2022-09-12T17:46:31.553Z,100371.99
2022-09-12T17:49:01.254Z,100376.77
2022-09-12T17:51:31.502Z,100378.55
2022-09-12T17:54:05.324Z,100384.09
2022-09-12T17:56:34.921Z,100381.68
2022-09-12T17:59:05.327Z,100383.14
2022-09-12T18:01:52.327Z,100386.29
2022-09-12T18:04:21.255Z,100389.77
2022-09-12T18:06:49.943Z,100394.57
2022-09-12T18:09:20.050Z,100399.80
2022-09-12T18:11:49.473Z,100400.64
2022-09-12T18:14:18.664Z,100402.27
2022-09-12T18:16:48.049Z,100402.95
2022-09-12T18:19:21.060Z,100406.91
2022-09-12T18:21:50.322Z,100410.04
2022-09-12T18:24:18.949Z,100413.73
2022-09-12T18:26:47.427Z,100411.48
2022-09-12T18:29:17.345Z,100414.06
2022-09-12T18:31:47.055Z,100412.30
2022-09-12T18:34:55.275Z,100416.25
2022-09-12T18:38:03.356Z,100424.14
2022-09-12T18:40:31.657Z,100432.01
2022-09-12T18:43:00.601Z,100432.10
2022-09-12T18:45:28.878Z,100435.34
2022-09-12T18:47:58.233Z,100435.43
2022-09-12T18:51:06.527Z,100438.92
2022-09-12T18:54:14.634Z,100440.67
2022-09-12T18:56:44.251Z,100441.75
2022-09-12T18:59:14.350Z,100439.31
2022-09-12T19:01:43.689Z,100439.98
2022-09-12T19:04:12.992Z,100442.55
2022-09-12T19:06:42.963Z,100442.29
2022-09-12T19:09:12.825Z,100444.11
2022-09-12T19:11:48.757Z,100442.24
2022-09-12T19:14:18.801Z,100448.70
2022-09-12T19:16:47.253Z,100452.42
2022-09-12T19:19:15.663Z,100452.38
2022-09-12T19:21:44.439Z,100456.89
2022-09-12T19:24:14.617Z,100464.23
2022-09-12T19:26:43.364Z,100458.98
2022-09-12T19:29:12.145Z,100462.67
2022-09-12T19:31:40.841Z,100463.52
2022-09-12T19:34:10.769Z,100465.44
2022-09-12T19:36:47.561Z,100467.16
2022-09-12T19:39:17.834Z,100469.55
2022-09-12T19:41:47.263Z,100469.13
2022-09-12T19:44:15.748Z,100474.09
2022-09-12T19:46:44.190Z,100480.45
2022-09-12T19:49:13.374Z,100480.37
2022-09-12T19:51:41.801Z,100483.14
2022-09-12T19:54:10.187Z,100480.99
2022-09-12T19:56:38.872Z,100485.03
2022-09-12T19:59:07.150Z,100484.89
2022-09-12T20:01:37.335Z,100483.61
2022-09-12T20:04:07.186Z,100485.55
2022-09-12T20:06:37.020Z,100485.30
2022-09-12T20:09:05.483Z,100484.92
2022-09-12T20:11:34.578Z,100485.92
2022-09-12T20:14:03.266Z,100490.95
2022-09-12T20:16:33.745Z,100490.09
2022-09-12T20:19:06.683Z,100487.70
2022-09-12T20:21:36.271Z,100494.05
2022-09-12T20:24:10.395Z,100497.79
2022-09-12T20:26:39.954Z,100499.90
2022-09-12T20:29:08.598Z,100500.80
2022-09-12T20:31:38.055Z,100512.23
2022-09-12T20:34:07.610Z,100514.52
2022-09-12T20:36:35.886Z,100516.47
2022-09-12T20:39:04.683Z,100518.34
2022-09-12T20:41:34.649Z,100519.75
2022-09-12T20:44:03.280Z,100519.48
2022-09-12T20:46:31.776Z,100519.98
2022-09-12T20:49:00.349Z,100523.30
2022-09-12T20:51:30.575Z,100530.13
2022-09-12T20:54:13.287Z,100529.79
2022-09-12T20:56:41.940Z,100526.27
2022-09-12T20:59:12.100Z,100529.13
2022-09-12T21:01:40.631Z,100532.34
2022-09-12T21:04:11.851Z,100530.56
2022-09-12T21:06:43.481Z,100535.66
2022-09-12T21:09:12.166Z,100532.86
2022-09-12T21:11:40.646Z,100535.01
2022-09-12T21:14:09.067Z,100534.25
2022-09-12T21:16:38.947Z,100534.40
2022-09-12T21:19:07.222Z,100537.59
2022-09-12T21:21:35.779Z,100546.05
2022-09-12T21:24:04.700Z,100553.38
2022-09-12T21:26:33.183Z,100559.99
2022-09-12T21:29:02.073Z,100561.29
2022-09-12T21:31:30.768Z,100565.45
2022-09-12T21:33:59.140Z,100564.77
2022-09-12T21:36:27.724Z,100565.80
2022-09-12T21:38:57.743Z,100563.44
2022-09-12T21:41:26.020Z,100564.96
2022-09-12T21:43:54.400Z,100562.28
2022-09-12T21:46:22.944Z,100560.85
2022-09-12T21:48:51.466Z,100564.38
2022-09-12T21:51:19.951Z,100559.45
2022-09-12T21:53:48.327Z,100562.14
2022-09-12T21:56:16.806Z,100563.29
2022-09-12T21:58:45.498Z,100565.95
2022-09-12T22:01:13.738Z,100567.70
2022-09-12T22:03:43.383Z,100564.98
2022-09-12T22:06:12.275Z,100562.29
2022-09-12T22:08:40.653Z,100566.11
2022-09-12T22:11:09.868Z,100563.76
2022-09-12T22:13:39.625Z,100566.61
2022-09-12T22:16:08.038Z,100572.00
2022-09-12T22:18:37.249Z,100574.52
2022-09-12T22:21:07.445Z,100583.47
2022-09-12T22:23:54.691Z,100580.13
2022-09-12T22:26:23.769Z,100576.17
2022-09-12T22:28:52.271Z,100576.26
2022-09-12T22:31:21.314Z,100576.33
2022-09-12T22:33:51.156Z,100571.39
2022-09-12T22:36:19.764Z,100570.95
2022-09-12T22:38:48.297Z,100569.73
2022-09-12T22:41:16.833Z,100566.98
2022-09-12T22:43:45.620Z,100563.87
2022-09-12T22:46:13.916Z,100563.40
2022-09-12T22:48:43.199Z,100558.52
2022-09-12T22:51:11.787Z,100559.60
2022-09-12T22:53:40.267Z,100563.36
2022-09-12T22:56:09.263Z,100557.61
2022-09-12T22:58:38.156Z,100560.27
2022-09-12T23:01:06.831Z,100557.41
2022-09-12T23:03:37.494Z,100559.81
2022-09-12T23:06:06.261Z,100566.34
2022-09-12T23:08:36.262Z,100564.69
2022-09-12T23:11:15.486Z,100565.55
2022-09-12T23:13:45.122Z,100564.42
2022-09-12T23:16:18.038Z,100555.93
2022-09-12T23:18:47.113Z,100556.98
2022-09-12T23:21:16.490Z,100555.51
2022-09-12T23:23:45.194Z,100557.11
2022-09-12T23:26:15.007Z,100555.94
2022-09-12T23:28:48.402Z,100552.95
2022-09-12T23:31:17.344Z,100548.75
2022-09-12T23:33:46.188Z,100546.08
2022-09-12T23:36:14.776Z,100544.75
2022-09-12T23:38:44.279Z,100544.79
2022-09-12T23:41:15.833Z,100542.40
2022-09-12T23:43:45.748Z,100546.70
2022-09-12T23:46:14.631Z,100548.45
2022-09-12T23:48:43.839Z,100549.44
2022-09-12T23:51:12.632Z,100549.30
2022-09-12T23:53:41.562Z,100542.35
2022-09-12T23:56:10.003Z,100543.20
2022-09-12T23:58:38.588Z,100538.77
